Terminal Aerodrome Forecast
Issued by NWS

Home | Current Version | Previous Version | Text Only | Print | Product List | Glossary On
Versions: 1 2 3 4 5 6 7 8 9 10 11 12
572
FTUS46 KMFR 241121
TAFOTH
TAF
KOTH 241121Z 2412/2512 VRB03KT 6SM BR SKC
     FM241300 VRB02KT 5SM BR SKC
     FM241900 31009KT P6SM SKC
     FM250300 VRB04KT P6SM SKC
     FM250700 18003KT 4SM BR BKN010=

USA.gov is the U.S. government's official web portal to all federal, state and local government web resources and services.